Time;durP1;ratioP1;P1;durP2;ratioP2;P2;SDS_P1;SDS_P2;PMS_P1;PMS_P2;Temp;Humidity;BMP_temperature;BMP_pressure;BME280_temperature;BME280_humidity;BME280_pressure;Samples;Min_cycle;Max_cycle;Signal;HPM_P1;HPM_P2
2022/06/29 00:02:24;;;;;;;;;;;22.80;67.20;;;;;;5038550;28;20055;-74
2022/06/29 00:04:51;;;;;;;;;;;22.70;67.20;;;;;;5037772;28;19936;-74
2022/06/29 00:07:17;;;;;;;;;;;22.80;67.20;;;;;;5040080;28;20748;-74
2022/06/29 00:09:44;;;;;;;;;;;22.70;67.20;;;;;;5039819;28;19939;-74
2022/06/29 00:12:11;;;;;;;;;;;22.70;67.20;;;;;;5040285;28;20423;-74
2022/06/29 00:14:42;;;;;;;;;;;22.60;67.30;;;;;;5043732;28;20470;-74
2022/06/29 00:17:09;;;;;;;;;;;22.60;67.40;;;;;;5042921;28;20023;-74
2022/06/29 00:19:36;;;;;;;;;;;22.60;67.40;;;;;;5038289;28;20738;-74
2022/06/29 00:22:03;;;;;;;;;;;22.60;67.50;;;;;;5041383;28;20662;-74
2022/06/29 00:24:30;;;;;;;;;;;22.60;67.50;;;;;;5040502;28;19929;-73
2022/06/29 00:26:57;;;;;;;;;;;22.50;67.60;;;;;;5038245;28;20511;-75
2022/06/29 00:29:23;;;;;;;;;;;22.50;67.60;;;;;;5039924;28;19940;-73
2022/06/29 00:31:51;;;;;;;;;;;22.50;67.70;;;;;;5035683;28;20408;-74
2022/06/29 00:34:18;;;;;;;;;;;22.50;67.80;;;;;;5041413;28;20381;-74
2022/06/29 00:36:45;;;;;;;;;;;22.40;67.80;;;;;;5040582;28;20032;-74
2022/06/29 00:39:12;;;;;;;;;;;22.50;68.00;;;;;;5041062;28;20617;-74
2022/06/29 00:41:39;;;;;;;;;;;22.40;68.00;;;;;;5042115;28;19928;-73
2022/06/29 00:44:07;;;;;;;;;;;22.40;68.20;;;;;;5037816;28;19933;-72
2022/06/29 00:46:34;;;;;;;;;;;22.40;68.20;;;;;;5034943;28;19990;-74
2022/06/29 00:49:02;;;;;;;;;;;22.40;68.30;;;;;;5036603;28;19935;-72
2022/06/29 00:51:30;;;;;;;;;;;22.40;69.10;;;;;;5035162;28;19959;-73
2022/06/29 00:53:58;;;;;;;;;;;22.40;68.40;;;;;;5035592;28;20379;-74
2022/06/29 00:56:25;;;;;;;;;;;22.30;68.40;;;;;;5037803;28;19928;-73
2022/06/29 00:58:54;;;;;;;;;;;22.30;68.60;;;;;;5036746;28;19933;-73
2022/06/29 01:01:20;;;;;;;;;;;22.30;68.80;;;;;;5035251;28;19928;-73
2022/06/29 01:03:47;;;;;;;;;;;22.30;68.80;;;;;;5035726;28;19939;-73
2022/06/29 01:06:15;;;;;;;;;;;22.30;68.90;;;;;;5036468;28;19940;-73
2022/06/29 01:08:42;;;;;;;;;;;22.30;69.00;;;;;;5035551;28;20301;-74
2022/06/29 01:11:08;;;;;;;;;;;22.20;68.90;;;;;;5035208;28;19940;-74
2022/06/29 01:13:35;;;;;;;;;;;22.20;69.10;;;;;;5038482;28;19928;-74
2022/06/29 01:16:02;;;;;;;;;;;22.20;69.20;;;;;;5034494;28;19943;-74
2022/06/29 01:18:28;;;;;;;;;;;22.20;69.20;;;;;;5038036;28;19929;-75
2022/06/29 01:20:55;;;;;;;;;;;22.20;69.40;;;;;;5036708;28;19936;-76
2022/06/29 01:23:23;;;;;;;;;;;22.20;69.50;;;;;;5036214;28;20002;-74
2022/06/29 01:25:50;;;;;;;;;;;22.10;70.30;;;;;;5038956;28;19933;-74
2022/06/29 01:28:17;;;;;;;;;;;22.10;69.80;;;;;;5039138;28;20438;-75
2022/06/29 01:30:44;;;;;;;;;;;22.10;69.80;;;;;;5039435;28;20006;-75
2022/06/29 01:33:11;;;;;;;;;;;22.10;69.90;;;;;;5039830;28;19972;-75
2022/06/29 01:35:38;;;;;;;;;;;22.10;70.00;;;;;;5041307;28;19935;-74
2022/06/29 01:38:05;;;;;;;;;;;22.10;70.10;;;;;;5041608;28;19935;-74
2022/06/29 01:40:33;;;;;;;;;;;22.10;70.20;;;;;;5039564;28;19940;-74
2022/06/29 01:43:00;;;;;;;;;;;22.00;70.20;;;;;;5038167;28;20330;-74
2022/06/29 01:45:27;;;;;;;;;;;22.00;70.30;;;;;;5039935;28;20019;-74
2022/06/29 01:47:54;;;;;;;;;;;22.00;70.30;;;;;;5040864;28;19936;-74
2022/06/29 01:50:21;;;;;;;;;;;22.00;70.40;;;;;;5034943;28;19932;-75
2022/06/29 01:52:47;;;;;;;;;;;22.00;70.50;;;;;;5038388;28;19935;-75
2022/06/29 01:55:14;;;;;;;;;;;22.00;70.60;;;;;;5040116;28;19937;-75
2022/06/29 01:57:42;;;;;;;;;;;21.90;70.70;;;;;;5040166;28;19933;-74
2022/06/29 02:00:10;;;;;;;;;;;21.90;70.80;;;;;;5038564;28;20034;-75
2022/06/29 02:02:37;;;;;;;;;;;21.90;70.80;;;;;;5039715;28;19937;-74
2022/06/29 02:05:04;;;;;;;;;;;21.90;71.00;;;;;;5033705;28;19940;-75
2022/06/29 02:07:31;;;;;;;;;;;21.90;71.10;;;;;;5041027;28;19964;-75
2022/06/29 02:09:58;;;;;;;;;;;21.90;71.20;;;;;;5035477;28;20011;-73
2022/06/29 02:12:25;;;;;;;;;;;21.90;71.30;;;;;;5038232;28;19925;-76
2022/06/29 02:14:53;;;;;;;;;;;21.80;71.40;;;;;;5035849;28;19944;-76
2022/06/29 02:17:22;;;;;;;;;;;21.90;71.60;;;;;;5035228;28;19936;-74
2022/06/29 02:19:49;;;;;;;;;;;21.90;71.60;;;;;;5034481;28;20531;-74
2022/06/29 02:22:17;;;;;;;;;;;21.80;71.70;;;;;;5035957;28;21348;-73
2022/06/29 02:24:44;;;;;;;;;;;21.80;71.80;;;;;;5031497;28;20305;-73
2022/06/29 02:27:10;;;;;;;;;;;21.80;71.90;;;;;;5037681;28;19940;-74
2022/06/29 02:29:37;;;;;;;;;;;21.80;72.10;;;;;;5029854;28;19928;-73
2022/06/29 02:34:49;;;;;;;;;;;21.80;72.20;;;;;;5038441;28;19951;-74
2022/06/29 02:37:16;;;;;;;;;;;21.80;72.30;;;;;;5038103;28;19933;-74
2022/06/29 02:39:43;;;;;;;;;;;21.70;72.20;;;;;;5035250;28;19983;-74
2022/06/29 02:42:10;;;;;;;;;;;21.70;72.30;;;;;;5037597;28;19929;-75
2022/06/29 02:44:37;;;;;;;;;;;21.70;72.40;;;;;;5036590;28;20032;-73
2022/06/29 02:47:05;;;;;;;;;;;21.70;72.50;;;;;;5032899;28;19929;-73
2022/06/29 02:49:32;;;;;;;;;;;21.70;72.70;;;;;;5031266;28;20396;-73
2022/06/29 02:51:59;;;;;;;;;;;21.70;72.70;;;;;;5030680;28;19928;-74
2022/06/29 02:54:25;;;;;;;;;;;21.70;72.80;;;;;;5033174;28;21011;-76
2022/06/29 02:56:52;;;;;;;;;;;21.70;72.90;;;;;;5036107;28;20337;-74
2022/06/29 02:59:19;;;;;;;;;;;21.60;72.90;;;;;;5035852;28;19936;-74
2022/06/29 03:01:46;;;;;;;;;;;21.70;73.10;;;;;;5032009;28;19972;-77
2022/06/29 03:04:14;;;;;;;;;;;21.60;73.10;;;;;;5035340;28;19942;-75
2022/06/29 03:06:40;;;;;;;;;;;21.60;73.20;;;;;;5035100;28;19952;-74
2022/06/29 03:09:07;;;;;;;;;;;21.60;73.30;;;;;;5036870;28;20388;-73
2022/06/29 03:11:34;;;;;;;;;;;21.60;73.40;;;;;;5037062;28;19933;-74
2022/06/29 03:14:00;;;;;;;;;;;21.60;73.40;;;;;;5036517;28;19928;-73
2022/06/29 03:16:27;;;;;;;;;;;21.60;73.50;;;;;;5034096;28;19929;-75
2022/06/29 03:18:53;;;;;;;;;;;21.60;73.60;;;;;;5037531;28;19932;-73
2022/06/29 03:21:21;;;;;;;;;;;21.60;73.70;;;;;;5034020;28;19939;-73
2022/06/29 03:23:48;;;;;;;;;;;21.60;73.80;;;;;;5037900;28;20685;-73
2022/06/29 03:26:14;;;;;;;;;;;21.50;73.80;;;;;;5038813;28;20326;-73
2022/06/29 03:28:41;;;;;;;;;;;21.50;73.90;;;;;;5036521;28;19928;-76
2022/06/29 03:31:08;;;;;;;;;;;21.50;74.00;;;;;;5037754;28;19933;-74
2022/06/29 03:33:34;;;;;;;;;;;21.50;74.00;;;;;;5037652;28;20686;-74
2022/06/29 03:36:01;;;;;;;;;;;21.50;74.10;;;;;;5037329;28;19940;-73
2022/06/29 03:38:29;;;;;;;;;;;21.50;74.00;;;;;;5039835;28;20557;-74
2022/06/29 03:40:55;;;;;;;;;;;21.50;74.10;;;;;;5039630;28;19933;-76
2022/06/29 03:43:22;;;;;;;;;;;21.50;74.20;;;;;;5039548;28;19936;-73
2022/06/29 03:45:49;;;;;;;;;;;21.50;74.20;;;;;;5042858;28;19935;-72
2022/06/29 03:48:16;;;;;;;;;;;21.40;74.20;;;;;;5037856;28;19936;-74
2022/06/29 03:50:43;;;;;;;;;;;21.50;74.40;;;;;;5035319;28;20020;-76
2022/06/29 03:53:10;;;;;;;;;;;21.40;74.40;;;;;;5038600;28;20008;-74
2022/06/29 03:55:38;;;;;;;;;;;21.50;74.60;;;;;;5038989;28;19990;-74
2022/06/29 03:58:05;;;;;;;;;;;21.40;74.60;;;;;;5041660;28;19932;-74
2022/06/29 04:00:31;;;;;;;;;;;21.40;74.70;;;;;;5040531;28;19928;-74
2022/06/29 04:02:58;;;;;;;;;;;21.40;74.80;;;;;;5039930;28;19944;-74
2022/06/29 04:05:25;;;;;;;;;;;21.40;74.70;;;;;;5041804;28;20015;-74
2022/06/29 04:07:52;;;;;;;;;;;21.40;74.80;;;;;;5040912;28;19933;-75
2022/06/29 04:10:19;;;;;;;;;;;21.40;74.90;;;;;;5038034;28;20022;-74
2022/06/29 04:12:47;;;;;;;;;;;21.40;74.90;;;;;;5038770;28;19933;-74
2022/06/29 04:15:14;;;;;;;;;;;21.40;75.00;;;;;;5039761;28;19935;-75
2022/06/29 04:17:41;;;;;;;;;;;21.30;75.00;;;;;;5040981;28;20008;-75
2022/06/29 04:20:08;;;;;;;;;;;21.30;75.00;;;;;;5040224;28;19933;-74
2022/06/29 04:22:34;;;;;;;;;;;21.30;75.10;;;;;;5039381;28;20388;-74
2022/06/29 04:25:01;;;;;;;;;;;21.30;75.10;;;;;;5041597;28;20307;-75
2022/06/29 04:27:28;;;;;;;;;;;21.30;75.20;;;;;;5041632;28;19928;-75
2022/06/29 04:29:56;;;;;;;;;;;21.30;75.20;;;;;;5041641;28;19986;-74
2022/06/29 04:32:23;;;;;;;;;;;21.30;75.30;;;;;;5038452;28;20723;-74
2022/06/29 04:34:50;;;;;;;;;;;21.30;75.30;;;;;;5041611;28;19987;-75
2022/06/29 04:37:17;;;;;;;;;;;21.30;75.40;;;;;;5041135;28;19952;-75
2022/06/29 04:39:44;;;;;;;;;;;21.30;75.50;;;;;;5038567;28;19940;-74
2022/06/29 04:42:10;;;;;;;;;;;21.30;75.70;;;;;;5039397;28;20007;-74
2022/06/29 04:44:37;;;;;;;;;;;21.20;75.60;;;;;;5039182;28;20563;-75
2022/06/29 04:47:06;;;;;;;;;;;21.20;75.70;;;;;;5040210;28;19960;-75
2022/06/29 04:49:32;;;;;;;;;;;21.20;75.80;;;;;;5038514;28;20021;-73
2022/06/29 04:51:59;;;;;;;;;;;21.20;75.70;;;;;;5037741;28;20070;-73
2022/06/29 04:54:25;;;;;;;;;;;21.20;75.70;;;;;;5041035;28;19999;-73
2022/06/29 04:56:52;;;;;;;;;;;21.20;75.80;;;;;;5039339;28;19936;-76
2022/06/29 04:59:19;;;;;;;;;;;21.20;76.60;;;;;;5038560;28;19933;-72
2022/06/29 05:01:47;;;;;;;;;;;21.20;75.80;;;;;;5035365;28;19956;-73
2022/06/29 05:04:15;;;;;;;;;;;21.20;75.80;;;;;;5036485;28;19968;-74
2022/06/29 05:06:42;;;;;;;;;;;21.20;75.80;;;;;;5036441;28;19933;-73
2022/06/29 05:09:08;;;;;;;;;;;21.10;75.80;;;;;;5035701;28;19929;-73
2022/06/29 05:11:35;;;;;;;;;;;21.20;75.80;;;;;;5037237;28;19932;-74
2022/06/29 05:14:01;;;;;;;;;;;21.10;75.70;;;;;;5039031;28;19928;-75
2022/06/29 05:16:28;;;;;;;;;;;21.20;75.70;;;;;;5031919;28;19936;-74
2022/06/29 05:18:55;;;;;;;;;;;21.20;75.70;;;;;;5035763;28;19928;-73
2022/06/29 05:21:23;;;;;;;;;;;21.10;75.60;;;;;;5038733;28;20577;-77
2022/06/29 05:23:50;;;;;;;;;;;21.20;76.70;;;;;;5045251;28;19933;-74
2022/06/29 05:26:16;;;;;;;;;;;21.10;76.80;;;;;;5049228;28;19925;-74
2022/06/29 05:28:43;;;;;;;;;;;21.10;76.40;;;;;;5048879;28;20288;-74
2022/06/29 05:31:10;;;;;;;;;;;21.10;77.00;;;;;;5043413;28;19932;-73
2022/06/29 05:33:39;;;;;;;;;;;21.10;76.20;;;;;;5044924;28;19936;-75
2022/06/29 05:36:07;;;;;;;;;;;21.10;76.30;;;;;;5041057;28;19925;-74
2022/06/29 05:38:35;;;;;;;;;;;21.10;76.40;;;;;;5045090;28;19925;-73
2022/06/29 05:41:02;;;;;;;;;;;21.10;76.40;;;;;;5042984;28;19925;-73
2022/06/29 05:43:29;;;;;;;;;;;21.10;76.40;;;;;;5046250;28;19970;-75
2022/06/29 05:45:56;;;;;;;;;;;21.10;76.40;;;;;;5043668;28;19929;-73
2022/06/29 05:48:23;;;;;;;;;;;21.10;76.30;;;;;;5038370;28;19929;-69
2022/06/29 05:50:50;;;;;;;;;;;21.00;76.20;;;;;;5038783;28;19928;-70
2022/06/29 05:53:17;;;;;;;;;;;21.10;76.30;;;;;;5041850;28;19924;-69
2022/06/29 05:55:45;;;;;;;;;;;21.10;76.30;;;;;;5042102;28;19932;-74
2022/06/29 05:58:15;;;;;;;;;;;21.10;76.40;;;;;;5037822;28;19935;-72
2022/06/29 06:00:42;;;;;;;;;;;21.10;76.40;;;;;;5041427;28;19952;-69
2022/06/29 06:03:08;;;;;;;;;;;21.00;76.40;;;;;;5039121;28;19966;-69
2022/06/29 06:05:35;;;;;;;;;;;21.10;76.40;;;;;;5041463;28;19928;-69
2022/06/29 06:08:02;;;;;;;;;;;21.10;76.40;;;;;;5040126;28;19932;-69
2022/06/29 06:10:28;;;;;;;;;;;21.10;76.50;;;;;;5041172;28;19925;-69
2022/06/29 06:12:57;;;;;;;;;;;21.10;76.40;;;;;;5042173;28;19952;-70
2022/06/29 06:15:23;;;;;;;;;;;21.10;76.40;;;;;;5036258;28;19928;-69
2022/06/29 06:17:50;;;;;;;;;;;21.10;76.40;;;;;;5039675;28;20475;-69
2022/06/29 06:20:17;;;;;;;;;;;21.10;76.40;;;;;;5042149;28;19928;-72
2022/06/29 06:22:44;;;;;;;;;;;21.00;76.20;;;;;;5040906;28;20415;-69
2022/06/29 06:25:10;;;;;;;;;;;21.10;76.20;;;;;;5038356;28;19936;-70
2022/06/29 06:27:37;;;;;;;;;;;21.10;76.20;;;;;;5038266;28;19925;-70
2022/06/29 06:30:05;;;;;;;;;;;21.10;76.10;;;;;;5042260;28;20398;-69
2022/06/29 06:32:32;;;;;;;;;;;21.10;76.70;;;;;;5041469;28;20309;-69
2022/06/29 06:34:59;;;;;;;;;;;21.10;76.60;;;;;;5040319;28;20360;-69
2022/06/29 06:37:25;;;;;;;;;;;21.10;75.70;;;;;;5041235;28;19936;-71
2022/06/29 06:42:36;;;;;;;;;;;21.20;75.50;;;;;;5040050;28;19931;-69
2022/06/29 06:45:03;;;;;;;;;;;21.20;75.50;;;;;;5036930;28;19952;-70
2022/06/29 06:47:31;;;;;;;;;;;21.20;75.40;;;;;;5036037;28;19936;-70
2022/06/29 06:49:57;;;;;;;;;;;21.20;75.20;;;;;;5036029;28;19933;-72
2022/06/29 06:52:24;;;;;;;;;;;21.20;75.20;;;;;;5040401;28;19929;-69
2022/06/29 06:54:50;;;;;;;;;;;21.20;75.00;;;;;;5038656;28;19936;-69
2022/06/29 06:57:17;;;;;;;;;;;21.20;75.00;;;;;;5038511;28;20665;-69
2022/06/29 06:59:43;;;;;;;;;;;21.30;74.90;;;;;;5040204;28;19928;-72
2022/06/29 07:02:10;;;;;;;;;;;21.30;74.80;;;;;;5044954;28;19935;-77
2022/06/29 07:04:38;;;;;;;;;;;21.40;74.70;;;;;;5044557;28;19935;-79
2022/06/29 07:07:05;;;;;;;;;;;21.30;74.60;;;;;;5044416;28;19928;-74
2022/06/29 07:09:31;;;;;;;;;;;21.40;74.60;;;;;;5034622;28;20014;-76
2022/06/29 07:11:58;;;;;;;;;;;21.40;74.40;;;;;;5031173;28;19928;-77
2022/06/29 07:14:24;;;;;;;;;;;21.40;74.30;;;;;;5037089;28;19940;-79
2022/06/29 07:16:51;;;;;;;;;;;21.40;74.10;;;;;;5041467;28;19948;-76
2022/06/29 07:19:18;;;;;;;;;;;21.50;74.10;;;;;;5044433;28;19939;-77
2022/06/29 07:21:46;;;;;;;;;;;21.50;74.00;;;;;;5041545;28;20257;-77
2022/06/29 07:24:12;;;;;;;;;;;21.60;74.00;;;;;;5039548;28;19933;-77
2022/06/29 07:26:39;;;;;;;;;;;21.60;73.90;;;;;;5043278;28;20798;-81
2022/06/29 07:29:06;;;;;;;;;;;21.60;73.80;;;;;;5037235;28;19928;-76
2022/06/29 07:31:33;;;;;;;;;;;21.60;73.70;;;;;;5038799;28;19936;-77
2022/06/29 07:34:02;;;;;;;;;;;21.60;73.70;;;;;;5043745;28;20418;-80
2022/06/29 07:36:29;;;;;;;;;;;21.60;73.30;;;;;;5044436;28;20012;-78
2022/06/29 07:38:57;;;;;;;;;;;21.60;73.00;;;;;;5039495;28;19928;-79
2022/06/29 07:41:23;;;;;;;;;;;21.70;73.00;;;;;;5042076;28;19925;-78
2022/06/29 07:43:50;;;;;;;;;;;21.70;72.90;;;;;;5044719;28;20024;-80
2022/06/29 07:46:17;;;;;;;;;;;21.70;72.80;;;;;;5042869;28;20410;-79
2022/06/29 07:48:43;;;;;;;;;;;21.80;72.70;;;;;;5039894;28;20296;-69
2022/06/29 07:51:10;;;;;;;;;;;21.80;73.40;;;;;;5041733;28;19928;-73
2022/06/29 07:53:37;;;;;;;;;;;21.80;72.60;;;;;;5045558;28;20415;-70
2022/06/29 07:56:05;;;;;;;;;;;21.80;72.50;;;;;;5043718;28;19971;-69
2022/06/29 07:58:31;;;;;;;;;;;21.90;72.40;;;;;;5044546;28;20015;-69
2022/06/29 08:00:58;;;;;;;;;;;21.90;73.00;;;;;;5044246;28;19929;-70
2022/06/29 08:03:25;;;;;;;;;;;21.90;72.00;;;;;;5044364;28;20581;-69
2022/06/29 08:05:51;;;;;;;;;;;22.00;72.00;;;;;;5047616;28;19931;-69
2022/06/29 08:08:18;;;;;;;;;;;22.00;71.90;;;;;;5040940;28;19924;-69
2022/06/29 08:10:44;;;;;;;;;;;22.00;71.80;;;;;;5041650;28;20768;-71
2022/06/29 08:13:12;;;;;;;;;;;22.00;71.60;;;;;;5042001;28;19929;-69
2022/06/29 08:15:39;;;;;;;;;;;22.10;71.70;;;;;;5044798;28;19929;-69
2022/06/29 08:18:06;;;;;;;;;;;22.10;71.80;;;;;;5044739;28;19929;-72
2022/06/29 08:20:33;;;;;;;;;;;22.10;71.60;;;;;;5040988;28;19945;-69
2022/06/29 08:22:59;;;;;;;;;;;22.10;71.50;;;;;;5042681;28;19928;-71
2022/06/29 08:25:26;;;;;;;;;;;22.20;71.50;;;;;;5041573;28;20843;-72
2022/06/29 08:27:53;;;;;;;;;;;22.20;71.70;;;;;;5044828;28;19933;-69
2022/06/29 08:30:21;;;;;;;;;;;22.20;71.60;;;;;;5043361;28;20015;-69
2022/06/29 08:32:48;;;;;;;;;;;22.20;71.50;;;;;;5040263;28;19932;-69
2022/06/29 08:35:16;;;;;;;;;;;22.30;71.60;;;;;;5044744;28;19929;-70
2022/06/29 08:37:42;;;;;;;;;;;22.40;71.50;;;;;;5043606;28;19933;-69
2022/06/29 08:40:10;;;;;;;;;;;22.40;71.30;;;;;;5044429;28;19928;-71
2022/06/29 08:42:37;;;;;;;;;;;22.40;71.00;;;;;;5040873;28;19936;-69
2022/06/29 08:45:04;;;;;;;;;;;22.40;71.10;;;;;;5040732;28;19955;-69
2022/06/29 08:47:32;;;;;;;;;;;22.50;71.10;;;;;;5040160;28;19936;-69
2022/06/29 08:49:59;;;;;;;;;;;22.40;70.90;;;;;;5040522;28;19929;-77
2022/06/29 08:52:26;;;;;;;;;;;22.50;70.90;;;;;;5032099;28;19972;-75
2022/06/29 08:54:53;;;;;;;;;;;22.50;70.70;;;;;;5037386;28;20355;-72
2022/06/29 08:57:21;;;;;;;;;;;22.60;70.70;;;;;;5040552;28;19929;-73
2022/06/29 08:59:48;;;;;;;;;;;22.60;70.70;;;;;;5037713;28;19929;-76
2022/06/29 09:02:15;;;;;;;;;;;22.70;70.60;;;;;;5035590;28;19928;-73
2022/06/29 09:04:43;;;;;;;;;;;22.60;70.30;;;;;;5036792;28;19929;-71
2022/06/29 09:07:09;;;;;;;;;;;22.70;70.30;;;;;;5040504;28;19932;-72
2022/06/29 09:09:51;;;;;;;;;;;22.70;70.30;;;;;;5037749;28;19932;-75
2022/06/29 09:12:18;;;;;;;;;;;22.80;70.30;;;;;;5041188;28;20379;-76
2022/06/29 09:14:45;;;;;;;;;;;22.80;69.90;;;;;;5039122;28;19944;-77
2022/06/29 09:17:11;;;;;;;;;;;22.90;69.80;;;;;;5036050;28;19932;-74
2022/06/29 09:19:46;;;;;;;;;;;22.90;69.50;;;;;;5039245;28;19932;-72
2022/06/29 09:22:13;;;;;;;;;;;22.90;69.50;;;;;;5038607;28;19943;-71
2022/06/29 09:24:40;;;;;;;;;;;23.00;70.30;;;;;;5040559;28;19929;-76
2022/06/29 09:27:08;;;;;;;;;;;23.00;69.40;;;;;;5034850;28;19928;-77
2022/06/29 09:29:36;;;;;;;;;;;23.10;69.40;;;;;;5037420;28;19929;-76
2022/06/29 09:32:11;;;;;;;;;;;23.10;69.30;;;;;;5037627;28;19933;-76
2022/06/29 09:34:39;;;;;;;;;;;23.10;69.20;;;;;;5038320;28;19944;-75
2022/06/29 09:37:08;;;;;;;;;;;23.20;69.20;;;;;;5040503;28;19929;-76
2022/06/29 09:39:36;;;;;;;;;;;23.30;69.10;;;;;;5042348;28;20297;-76
2022/06/29 09:42:03;;;;;;;;;;;23.30;69.10;;;;;;5037666;28;20011;-77
2022/06/29 09:44:30;;;;;;;;;;;23.40;69.00;;;;;;5040772;28;19936;-76
2022/06/29 09:46:57;;;;;;;;;;;23.40;68.90;;;;;;5043171;28;20033;-76
2022/06/29 09:49:25;;;;;;;;;;;23.50;69.00;;;;;;5041097;28;19933;-76
2022/06/29 09:51:54;;;;;;;;;;;23.50;69.00;;;;;;5037980;28;19929;-73
2022/06/29 09:54:24;;;;;;;;;;;23.60;68.60;;;;;;5042580;28;19929;-75
2022/06/29 09:56:51;;;;;;;;;;;23.60;68.60;;;;;;5039224;28;19939;-76
2022/06/29 10:05:01;;;;;;;;;;;23.80;68.20;;;;;;5037345;28;20400;-75
2022/06/29 10:07:29;;;;;;;;;;;23.90;67.80;;;;;;5043723;28;19969;-76
2022/06/29 10:09:57;;;;;;;;;;;23.90;67.50;;;;;;5038863;28;19943;-78
2022/06/29 10:15:20;;;;;;;;;;;24.00;67.60;;;;;;5039511;28;20054;-76
2022/06/29 10:17:53;;;;;;;;;;;24.00;67.50;;;;;;5043226;28;19932;-76
2022/06/29 10:20:38;;;;;;;;;;;24.00;67.40;;;;;;5044239;28;19987;-77
2022/06/29 10:23:05;;;;;;;;;;;24.00;67.40;;;;;;5040332;28;19928;-77
2022/06/29 10:25:35;;;;;;;;;;;24.10;67.40;;;;;;5038579;28;19933;-77
2022/06/29 10:28:16;;;;;;;;;;;24.10;67.20;;;;;;5036052;28;19979;-75
2022/06/29 10:30:43;;;;;;;;;;;24.10;67.10;;;;;;5036962;28;20583;-77
2022/06/29 10:33:24;;;;;;;;;;;24.10;67.10;;;;;;5039110;28;20035;-77
2022/06/29 10:35:58;;;;;;;;;;;24.20;67.10;;;;;;5035014;28;20681;-78
2022/06/29 10:38:25;;;;;;;;;;;24.20;67.10;;;;;;5038862;28;20021;-78
2022/06/29 10:43:51;;;;;;;;;;;24.20;67.40;;;;;;5141142;27;19919;-77
2022/06/29 10:46:17;;;;;;;;;;;24.30;67.30;;;;;;5101326;27;19932;-74
2022/06/29 10:49:12;;;;;;;;;;;24.30;67.10;;;;;;5077494;28;19928;-76
2022/06/29 10:51:38;;;;;;;;;;;24.30;67.20;;;;;;5072901;28;19939;-75
2022/06/29 10:54:20;;;;;;;;;;;24.40;67.20;;;;;;5072779;28;19928;-75
2022/06/29 10:56:46;;;;;;;;;;;24.40;67.20;;;;;;5076084;28;20648;-76
2022/06/29 10:59:28;;;;;;;;;;;24.40;67.30;;;;;;5079856;28;20458;-77
2022/06/29 11:02:09;;;;;;;;;;;24.40;67.20;;;;;;5075967;28;19936;-77
2022/06/29 11:04:35;;;;;;;;;;;24.50;67.00;;;;;;5077302;28;20440;-78
2022/06/29 11:12:34;;;;;;;;;;;24.50;66.80;;;;;;5077547;28;19927;-78
2022/06/29 11:17:46;;;;;;;;;;;24.60;66.80;;;;;;5096679;28;19989;-80
2022/06/29 11:20:17;;;;;;;;;;;24.60;66.40;;;;;;5094499;28;20355;-77
2022/06/29 11:22:49;;;;;;;;;;;24.60;66.40;;;;;;5095004;28;19928;-78
2022/06/29 11:25:15;;;;;;;;;;;24.70;66.50;;;;;;5094158;28;19927;-76
2022/06/29 11:27:42;;;;;;;;;;;24.70;66.50;;;;;;5098413;28;19928;-77
2022/06/29 11:30:10;;;;;;;;;;;24.70;66.30;;;;;;5095717;28;20474;-77
2022/06/29 11:32:38;;;;;;;;;;;24.80;66.00;;;;;;5072180;28;19932;-79
2022/06/29 11:35:06;;;;;;;;;;;24.80;65.80;;;;;;5080020;28;20433;-75
2022/06/29 11:37:33;;;;;;;;;;;24.80;65.70;;;;;;5078648;28;19933;-75
2022/06/29 11:40:00;;;;;;;;;;;24.90;65.80;;;;;;5073954;28;19928;-76
2022/06/29 11:45:17;;;;;;;;;;;24.90;65.60;;;;;;5071230;28;20089;-77
2022/06/29 11:47:50;;;;;;;;;;;25.00;65.60;;;;;;5093985;28;19928;-76
2022/06/29 11:50:18;;;;;;;;;;;25.10;66.30;;;;;;5091284;28;19932;-73
2022/06/29 11:52:45;;;;;;;;;;;25.10;65.10;;;;;;5093873;28;19928;-75
2022/06/29 11:55:12;;;;;;;;;;;25.20;65.10;;;;;;5075891;28;19928;-72
2022/06/29 11:57:38;;;;;;;;;;;25.20;65.10;;;;;;5077372;28;19928;-71
2022/06/29 12:00:06;;;;;;;;;;;25.30;65.00;;;;;;5075364;28;19932;-72
2022/06/29 12:02:34;;;;;;;;;;;25.40;64.80;;;;;;5083042;28;20108;-74
2022/06/29 12:05:01;;;;;;;;;;;25.50;64.60;;;;;;5076380;28;19932;-74
2022/06/29 12:07:30;;;;;;;;;;;25.60;64.30;;;;;;5079749;28;20685;-76
2022/06/29 12:09:58;;;;;;;;;;;25.60;64.20;;;;;;5077075;28;19932;-75
2022/06/29 12:12:25;;;;;;;;;;;25.70;63.70;;;;;;5080631;28;19928;-80
2022/06/29 12:14:51;;;;;;;;;;;25.70;63.30;;;;;;5088416;28;19928;-77
2022/06/29 12:17:21;;;;;;;;;;;25.80;63.30;;;;;;5080663;28;19928;-77
2022/06/29 12:19:47;;;;;;;;;;;25.90;63.40;;;;;;5064348;28;20696;-77
2022/06/29 12:22:14;;;;;;;;;;;25.90;62.90;;;;;;5081327;28;20506;-76
2022/06/29 12:24:42;;;;;;;;;;;26.00;62.60;;;;;;5081285;28;19935;-78
2022/06/29 12:27:10;;;;;;;;;;;26.00;62.60;;;;;;5079515;28;20269;-76
2022/06/29 12:29:45;;;;;;;;;;;26.10;62.40;;;;;;5084003;28;20062;-79
2022/06/29 12:32:12;;;;;;;;;;;26.20;62.20;;;;;;5087042;28;20670;-77
2022/06/29 12:34:40;;;;;;;;;;;26.20;61.70;;;;;;5085355;28;19928;-77
2022/06/29 12:37:07;;;;;;;;;;;26.30;61.90;;;;;;5076665;28;19936;-75
2022/06/29 12:39:33;;;;;;;;;;;26.40;61.20;;;;;;5080142;28;19932;-74
2022/06/29 12:42:03;;;;;;;;;;;26.40;61.10;;;;;;5078819;28;19928;-81
2022/06/29 12:44:30;;;;;;;;;;;26.50;61.10;;;;;;5079925;28;19964;-82
2022/06/29 12:46:56;;;;;;;;;;;26.50;60.70;;;;;;5078648;28;19928;-78
2022/06/29 12:49:23;;;;;;;;;;;26.60;60.90;;;;;;5079143;28;19935;-77
2022/06/29 12:51:50;;;;;;;;;;;26.60;60.70;;;;;;5081511;28;19959;-80
2022/06/29 12:54:17;;;;;;;;;;;26.70;60.60;;;;;;5080609;28;19928;-79
2022/06/29 12:56:44;;;;;;;;;;;26.70;60.30;;;;;;5076159;28;20312;-76
2022/06/29 12:59:12;;;;;;;;;;;26.80;60.60;;;;;;5079456;28;19989;-80
2022/06/29 13:01:39;;;;;;;;;;;26.80;59.80;;;;;;5066589;28;19928;-78
2022/06/29 13:04:05;;;;;;;;;;;26.80;59.80;;;;;;5076348;28;19932;-75
2022/06/29 13:06:32;;;;;;;;;;;26.90;60.00;;;;;;5085305;28;19924;-74
2022/06/29 13:08:58;;;;;;;;;;;27.00;59.70;;;;;;5086223;28;19939;-77
2022/06/29 13:11:25;;;;;;;;;;;27.00;59.90;;;;;;5083620;28;19932;-75
2022/06/29 13:13:51;;;;;;;;;;;27.10;59.40;;;;;;5084017;28;19942;-77
2022/06/29 13:16:19;;;;;;;;;;;27.20;59.50;;;;;;5081461;28;19939;-77
2022/06/29 13:18:46;;;;;;;;;;;27.20;58.80;;;;;;5082413;28;19928;-74
2022/06/29 13:21:12;;;;;;;;;;;27.20;58.90;;;;;;5086750;28;19928;-77
2022/06/29 13:23:39;;;;;;;;;;;27.30;59.40;;;;;;5085957;28;20451;-78
2022/06/29 13:26:07;;;;;;;;;;;27.30;59.00;;;;;;5076042;28;19935;-73
2022/06/29 13:28:33;;;;;;;;;;;27.40;58.40;;;;;;5080165;28;19939;-74
2022/06/29 13:31:00;;;;;;;;;;;27.50;58.80;;;;;;5082039;28;20614;-73
2022/06/29 13:33:28;;;;;;;;;;;27.50;58.70;;;;;;5083678;28;20327;-79
2022/06/29 13:35:54;;;;;;;;;;;27.60;58.70;;;;;;5078433;28;19928;-80
2022/06/29 13:38:21;;;;;;;;;;;27.60;58.90;;;;;;5080949;28;19932;-75
2022/06/29 13:40:48;;;;;;;;;;;27.70;58.70;;;;;;5078886;28;21797;-79
2022/06/29 13:43:14;;;;;;;;;;;27.70;58.60;;;;;;5081924;28;19928;-79
2022/06/29 13:45:41;;;;;;;;;;;27.70;58.20;;;;;;5079571;28;19928;-76
2022/06/29 13:48:08;;;;;;;;;;;27.80;58.00;;;;;;5080213;28;19939;-78
2022/06/29 13:50:36;;;;;;;;;;;27.90;57.50;;;;;;5076197;28;20011;-78
2022/06/29 13:53:03;;;;;;;;;;;27.90;57.70;;;;;;5082626;28;19928;-76
2022/06/29 13:55:29;;;;;;;;;;;28.00;57.70;;;;;;5084799;28;19928;-75
2022/06/29 13:57:56;;;;;;;;;;;28.00;58.10;;;;;;5079553;28;19939;-74
2022/06/29 14:00:23;;;;;;;;;;;28.10;57.40;;;;;;5078281;28;19932;-74
2022/06/29 14:02:50;;;;;;;;;;;28.20;57.60;;;;;;5075705;28;19928;-73
2022/06/29 14:05:16;;;;;;;;;;;28.20;57.60;;;;;;5074784;28;19935;-76
2022/06/29 14:07:44;;;;;;;;;;;28.30;57.60;;;;;;5078376;28;19928;-74
2022/06/29 14:10:11;;;;;;;;;;;28.40;57.30;;;;;;5078616;28;19935;-77
2022/06/29 14:12:38;;;;;;;;;;;28.40;57.20;;;;;;5080232;28;20456;-76
2022/06/29 14:15:05;;;;;;;;;;;28.50;57.20;;;;;;5081009;28;19935;-78
2022/06/29 14:17:31;;;;;;;;;;;28.50;56.90;;;;;;5060052;28;19935;-77
2022/06/29 14:19:58;;;;;;;;;;;28.60;57.00;;;;;;5054299;28;19929;-76
2022/06/29 14:22:24;;;;;;;;;;;28.60;56.10;;;;;;5058574;28;19935;-77
2022/06/29 14:24:52;;;;;;;;;;;28.70;56.30;;;;;;5065834;28;20300;-76
2022/06/29 14:27:19;;;;;;;;;;;28.70;56.00;;;;;;5063447;28;19928;-76
2022/06/29 14:29:46;;;;;;;;;;;28.80;56.20;;;;;;5067157;28;19936;-74
2022/06/29 14:32:12;;;;;;;;;;;28.80;56.00;;;;;;5050598;28;19986;-74
2022/06/29 14:34:39;;;;;;;;;;;28.90;55.60;;;;;;5059995;28;19928;-76
2022/06/29 14:37:06;;;;;;;;;;;28.90;54.90;;;;;;5062118;28;19928;-76
2022/06/29 14:39:32;;;;;;;;;;;29.00;55.40;;;;;;5062071;28;19929;-76
2022/06/29 14:42:00;;;;;;;;;;;29.00;55.00;;;;;;5057808;28;19935;-76
2022/06/29 14:44:27;;;;;;;;;;;29.10;55.10;;;;;;5060962;28;20014;-75
2022/06/29 14:46:54;;;;;;;;;;;29.20;55.30;;;;;;5060128;28;20408;-77